Time;durP1;ratioP1;P1;durP2;ratioP2;P2;SDS_P1;SDS_P2;PMS_P1;PMS_P2;Temp;Humidity;BMP_temperature;BMP_pressure;BME280_temperature;BME280_humidity;BME280_pressure;Samples;Min_cycle;Max_cycle;Signal;HPM_P1;HPM_P2
2023/01/11 00:00:43;;;;;;;;;;;;;;;18.27;61.32;99204.34;2039071;28;19927;-49
2023/01/11 00:01:44;;;;;;;;;;;;;;;18.25;61.48;99201.03;2039364;28;19979;-48
2023/01/11 00:02:47;;;;;;;;;;;;;;;18.25;61.45;99201.88;2038292;28;19934;-49
2023/01/11 00:03:47;;;;;;;;;;;;;;;18.24;61.47;99202.03;2039684;28;19930;-48
2023/01/11 00:04:49;;;;;;;;;;;;;;;18.24;61.54;99199.34;2036829;28;19922;-53
2023/01/11 00:05:49;;;;;;;;;;;;;;;18.24;61.25;99204.72;2041676;28;19922;-50
2023/01/11 00:06:51;;;;;;;;;;;;;;;18.23;61.54;99203.06;2039570;28;19978;-50
2023/01/11 00:07:51;;;;;;;;;;;;;;;18.24;61.23;99199.34;2036909;28;19922;-49
2023/01/11 00:08:54;;;;;;;;;;;;;;;18.24;61.22;99199.34;2039239;28;19984;-48
2023/01/11 00:09:56;;;;;;;;;;;;;;;18.21;61.45;99205.09;2037436;28;19926;-49
2023/01/11 00:11:01;;;;;;;;;;;;;;;18.20;61.43;99203.44;2037415;28;19930;-51
2023/01/11 00:12:01;;;;;;;;;;;;;;;18.20;61.39;99203.44;2039297;28;19926;-49
2023/01/11 00:13:03;;;;;;;;;;;;;;;18.20;61.50;99201.59;2038903;28;20021;-50
2023/01/11 00:14:03;;;;;;;;;;;;;;;18.18;61.27;99202.78;2034510;28;19972;-52
2023/01/11 00:15:05;;;;;;;;;;;;;;;18.18;61.34;99200.94;2039238;28;19930;-53
2023/01/11 00:16:06;;;;;;;;;;;;;;;18.18;61.51;99194.72;2041229;28;19922;-53
2023/01/11 00:17:08;;;;;;;;;;;;;;;18.15;61.23;99197.78;2035703;28;21169;-49
2023/01/11 00:18:09;;;;;;;;;;;;;;;18.16;61.31;99199.44;2042960;28;20034;-50
2023/01/11 00:19:10;;;;;;;;;;;;;;;18.16;61.45;99199.44;2040073;28;19937;-50
2023/01/11 00:20:11;;;;;;;;;;;;;;;18.14;61.11;99201.50;2036961;28;21981;-49
2023/01/11 00:21:12;;;;;;;;;;;;;;;18.15;61.47;99200.47;2039928;28;19930;-51
2023/01/11 00:22:13;;;;;;;;;;;;;;;18.13;61.26;99199.81;2041817;28;19976;-48
2023/01/11 00:23:14;;;;;;;;;;;;;;;18.14;61.58;99199.66;2040721;28;19926;-54
2023/01/11 00:24:15;;;;;;;;;;;;;;;18.14;61.26;99199.66;2040061;28;19980;-50
2023/01/11 00:25:18;;;;;;;;;;;;;;;18.14;61.42;99201.50;2036425;28;21425;-53
2023/01/11 00:26:18;;;;;;;;;;;;;;;18.11;61.28;99202.72;2040359;28;20321;-48
2023/01/11 00:27:19;;;;;;;;;;;;;;;18.11;61.28;99196.50;2038333;28;19923;-49
2023/01/11 00:28:20;;;;;;;;;;;;;;;18.07;61.35;99204.91;2038206;28;19922;-52
2023/01/11 00:29:21;;;;;;;;;;;;;;;18.07;61.41;99198.72;2042348;28;19922;-51
2023/01/11 00:30:22;;;;;;;;;;;;;;;18.05;61.55;99196.25;2044893;28;19979;-52
2023/01/11 00:31:23;;;;;;;;;;;;;;;18.04;61.53;99199.91;2042148;28;20015;-51
2023/01/11 00:32:26;;;;;;;;;;;;;;;18.03;61.42;99198.28;2035098;28;20278;-52
2023/01/11 00:33:27;;;;;;;;;;;;;;;18.01;61.39;99194.94;2042291;28;20376;-51
2023/01/11 00:34:27;;;;;;;;;;;;;;;18.02;61.55;99191.22;2041962;28;19976;-52
2023/01/11 00:35:30;;;;;;;;;;;;;;;18.02;61.54;99191.22;2038440;28;19992;-50
2023/01/11 00:36:30;;;;;;;;;;;;;;;18.01;61.64;99189.56;2037578;28;19975;-52
2023/01/11 00:37:32;;;;;;;;;;;;;;;18.01;61.52;99189.56;2039029;28;19930;-49
2023/01/11 00:38:50;;;;;;;;;;;;;;;17.98;61.50;99186.44;2040961;28;19984;-49
2023/01/11 00:39:51;;;;;;;;;;;;;;;17.97;61.41;99192.78;2032452;28;20305;-50
2023/01/11 00:40:53;;;;;;;;;;;;;;;17.97;61.49;99187.44;2040388;28;19939;-50
2023/01/11 00:48:32;;;;;;;;;;;;;;;17.90;61.58;99186.53;2038448;28;19966;-51
2023/01/11 00:49:32;;;;;;;;;;;;;;;17.88;61.51;99194.75;2039105;28;20386;-52
2023/01/11 00:50:35;;;;;;;;;;;;;;;17.87;61.79;99187.72;2039165;28;19922;-50
2023/01/11 00:51:35;;;;;;;;;;;;;;;17.85;61.78;99189.75;2038995;28;19963;-49
2023/01/11 00:52:37;;;;;;;;;;;;;;;17.83;61.79;99184.59;2039995;28;20578;-52
2023/01/11 00:53:38;;;;;;;;;;;;;;;17.83;61.68;99192.63;2043849;28;19937;-51
2023/01/11 00:54:39;;;;;;;;;;;;;;;17.81;61.81;99183.94;2039661;28;19926;-49
2023/01/11 00:55:41;;;;;;;;;;;;;;;17.81;61.75;99185.78;2039541;28;20328;-48
2023/01/11 00:56:43;;;;;;;;;;;;;;;17.78;61.81;99186.97;2037115;28;19937;-50
2023/01/11 00:57:44;;;;;;;;;;;;;;;17.78;61.90;99186.13;2036333;28;19922;-49
2023/01/11 00:58:45;;;;;;;;;;;;;;;17.76;61.70;99191.66;2035645;28;20027;-52
2023/01/11 00:59:46;;;;;;;;;;;;;;;17.75;61.98;99183.81;2040906;28;19926;-50
2023/01/11 01:00:47;;;;;;;;;;;;;;;17.74;61.78;99192.84;2040082;28;19952;-52
2023/01/11 01:01:48;;;;;;;;;;;;;;;17.75;61.68;99202.59;2042827;28;19930;-50
2023/01/11 01:02:50;;;;;;;;;;;;;;;17.73;61.81;99200.09;2037705;28;19934;-52
2023/01/11 01:03:50;;;;;;;;;;;;;;;17.72;61.82;99201.09;2038766;28;19926;-50
2023/01/11 01:04:52;;;;;;;;;;;;;;;17.73;61.93;99201.94;2041697;28;19926;-52
2023/01/11 01:05:53;;;;;;;;;;;;;;;17.70;61.88;99203.13;2037793;28;19926;-48
2023/01/11 01:06:54;;;;;;;;;;;;;;;17.72;61.85;99201.09;2036240;28;20145;-48
2023/01/11 01:07:55;;;;;;;;;;;;;;;17.72;61.86;99210.97;2039467;28;19937;-50
2023/01/11 01:08:56;;;;;;;;;;;;;;;17.71;61.95;99209.31;2039410;28;20034;-50
2023/01/11 01:09:57;;;;;;;;;;;;;;;17.69;61.89;99212.22;2040566;28;19972;-51
2023/01/11 01:10:58;;;;;;;;;;;;;;;17.68;61.68;99213.22;2039909;28;19938;-48
2023/01/11 01:12:00;;;;;;;;;;;;;;;17.68;61.79;99207.00;2038357;28;19938;-48
2023/01/11 01:14:25;;;;;;;;;;;;;;;17.66;61.95;99217.91;2021607;28;19926;-48
2023/01/11 01:15:26;;;;;;;;;;;;;;;17.65;61.98;99217.09;2021631;28;19927;-48
2023/01/11 01:16:27;;;;;;;;;;;;;;;17.65;61.97;99213.56;2040008;28;19926;-48
2023/01/11 01:17:28;;;;;;;;;;;;;;;17.61;61.96;99212.28;2037797;28;19926;-49
2023/01/11 01:18:29;;;;;;;;;;;;;;;17.60;62.01;99218.66;2039648;28;19980;-51
2023/01/11 01:19:31;;;;;;;;;;;;;;;17.61;62.00;99215.81;2037418;28;19938;-51
2023/01/11 01:20:31;;;;;;;;;;;;;;;17.58;62.11;99216.16;2037700;28;20565;-50
2023/01/11 01:21:32;;;;;;;;;;;;;;;17.58;62.16;99216.16;2039597;28;19927;-49
2023/01/11 01:22:33;;;;;;;;;;;;;;;17.58;62.03;99221.53;2041460;28;19926;-49
2023/01/11 01:23:34;;;;;;;;;;;;;;;17.58;61.95;99212.66;2037990;28;19933;-52
2023/01/11 01:24:35;;;;;;;;;;;;;;;17.57;62.09;99210.97;2036572;28;19972;-48
2023/01/11 01:25:37;;;;;;;;;;;;;;;17.55;61.92;99218.38;2041862;28;19925;-50
2023/01/11 01:26:37;;;;;;;;;;;;;;;17.54;62.06;99224.75;2040297;28;20305;-52
2023/01/11 01:27:40;;;;;;;;;;;;;;;17.53;62.12;99221.25;2041108;28;19926;-51
2023/01/11 01:28:40;;;;;;;;;;;;;;;17.54;61.88;99222.06;2039709;28;19926;-48
2023/01/11 01:29:42;;;;;;;;;;;;;;;17.51;61.98;99225.13;2043412;28;20295;-48
2023/01/11 01:30:42;;;;;;;;;;;;;;;17.51;62.04;99219.75;2037951;28;19922;-48
2023/01/11 01:31:44;;;;;;;;;;;;;;;17.50;62.02;99223.47;2043029;28;19930;-48
2023/01/11 01:32:44;;;;;;;;;;;;;;;17.50;62.08;99220.78;2036842;28;19930;-50
2023/01/11 01:33:46;;;;;;;;;;;;;;;17.49;62.14;99217.25;2038094;28;19926;-48
2023/01/11 01:34:46;;;;;;;;;;;;;;;17.47;62.17;99227.34;2040503;28;20604;-50
2023/01/11 01:35:48;;;;;;;;;;;;;;;17.48;62.17;99226.31;2042452;28;19933;-49
2023/01/11 01:36:48;;;;;;;;;;;;;;;17.44;62.12;99222.34;2042271;28;19926;-53
2023/01/11 01:37:50;;;;;;;;;;;;;;;17.44;62.04;99222.34;2042220;28;19926;-53
2023/01/11 01:38:50;;;;;;;;;;;;;;;17.44;62.17;99222.34;2038421;28;19926;-48
2023/01/11 01:39:52;;;;;;;;;;;;;;;17.43;62.14;99213.44;2034905;28;19926;-52
2023/01/11 01:40:52;;;;;;;;;;;;;;;17.42;62.30;99217.16;2035252;28;20048;-51
2023/01/11 01:41:54;;;;;;;;;;;;;;;17.45;62.25;99215.97;2037547;28;19935;-49
2023/01/11 01:42:56;;;;;;;;;;;;;;;17.41;62.26;99212.81;2037838;28;20086;-49
2023/01/11 01:43:58;;;;;;;;;;;;;;;17.40;62.20;99215.66;2038310;28;19933;-48
2023/01/11 01:45:01;;;;;;;;;;;;;;;17.39;62.12;99216.69;2037971;28;19988;-50
2023/01/11 01:46:02;;;;;;;;;;;;;;;17.38;62.18;99220.38;2044309;28;19930;-53
2023/01/11 01:47:03;;;;;;;;;;;;;;;17.38;62.24;99217.69;2040943;28;19922;-58
2023/01/11 01:48:05;;;;;;;;;;;;;;;17.37;62.30;99213.34;2035680;28;20000;-52
2023/01/11 01:49:08;;;;;;;;;;;;;;;17.37;62.13;99218.72;2044565;28;19922;-52
2023/01/11 01:50:14;;;;;;;;;;;;;;;17.33;62.38;99218.25;2040231;28;20060;-53
2023/01/11 01:51:18;;;;;;;;;;;;;;;17.33;62.17;99217.41;2036790;28;19961;-49
2023/01/11 01:52:19;;;;;;;;;;;;;;;17.33;62.34;99228.16;2037452;28;20034;-50
2023/01/11 01:53:22;;;;;;;;;;;;;;;17.34;62.24;99216.38;2036242;28;19926;-52
2023/01/11 01:54:35;;;;;;;;;;;;;;;17.32;62.28;99215.72;2038080;28;20163;-48
2023/01/11 01:55:39;;;;;;;;;;;;;;;17.31;62.15;99216.75;2039222;28;20007;-51
2023/01/11 01:56:43;;;;;;;;;;;;;;;17.30;62.36;99217.75;2038793;28;20583;-50
2023/01/11 01:57:45;;;;;;;;;;;;;;;17.27;62.52;99213.59;2037292;28;19957;-51
2023/01/11 01:58:49;;;;;;;;;;;;;;;17.27;62.44;99208.22;2042900;28;21721;-52
2023/01/11 01:59:51;;;;;;;;;;;;;;;17.26;62.43;99209.25;2043464;28;19930;-48
2023/01/11 02:00:53;;;;;;;;;;;;;;;17.27;62.39;99205.53;2038247;28;19927;-49
2023/01/11 02:01:55;;;;;;;;;;;;;;;17.25;62.38;99209.44;2039055;28;19927;-49
2023/01/11 02:02:58;;;;;;;;;;;;;;;17.23;62.47;99204.25;2038416;28;20386;-47
2023/01/11 02:03:58;;;;;;;;;;;;;;;17.24;62.35;99207.75;2041012;28;19978;-52
2023/01/11 02:04:59;;;;;;;;;;;;;;;17.22;62.52;99204.41;2036826;28;20508;-48
2023/01/11 02:06:00;;;;;;;;;;;;;;;17.23;62.40;99206.09;2037441;28;19968;-52
2023/01/11 02:07:03;;;;;;;;;;;;;;;17.21;62.46;99208.94;2037322;28;20320;-53
2023/01/11 02:08:08;;;;;;;;;;;;;;;17.20;62.45;99205.44;2037404;28;20289;-50
2023/01/11 02:09:17;;;;;;;;;;;;;;;17.21;62.31;99206.28;2039223;28;19926;-50
2023/01/11 02:10:19;;;;;;;;;;;;;;;17.21;62.49;99206.28;2040677;28;19930;-55
2023/01/11 02:11:30;;;;;;;;;;;;;;;17.20;62.36;99207.28;2029709;28;20003;-52
2023/01/11 02:12:34;;;;;;;;;;;;;;;17.17;62.48;99202.28;2034872;28;19938;-49
2023/01/11 02:13:44;;;;;;;;;;;;;;;17.18;62.44;99207.47;2038862;28;19930;-51
2023/01/11 02:14:47;;;;;;;;;;;;;;;17.18;62.45;99206.63;2036761;28;20010;-52
2023/01/11 02:16:06;;;;;;;;;;;;;;;17.15;62.40;99209.69;2037932;28;19930;-49
2023/01/11 02:17:08;;;;;;;;;;;;;;;17.15;62.37;99209.69;2036886;28;19930;-49
2023/01/11 02:18:09;;;;;;;;;;;;;;;17.12;62.43;99210.88;2027389;28;19938;-48
2023/01/11 02:19:18;;;;;;;;;;;;;;;17.12;62.43;99210.03;2037733;28;20924;-49
2023/01/11 02:20:43;;;;;;;;;;;;;;;17.13;62.52;99212.56;2034626;28;19930;-49
2023/01/11 02:21:55;;;;;;;;;;;;;;;17.13;62.43;99217.91;2034017;28;20294;-49
2023/01/11 02:23:19;;;;;;;;;;;;;;;17.10;62.48;99220.94;2038990;28;20384;-49
2023/01/11 02:24:35;;;;;;;;;;;;;;;17.13;62.38;99217.91;2062539;28;21001;-50
2023/01/11 02:26:02;;;;;;;;;;;;;;;17.09;62.51;99213.91;2036144;28;19952;-49
2023/01/11 02:27:18;;;;;;;;;;;;;;;17.09;62.61;99216.59;2069856;28;19971;-59
2023/01/11 02:28:23;;;;;;;;;;;;;;;17.06;62.68;99206.22;2033696;28;19933;-48
2023/01/11 02:29:29;;;;;;;;;;;;;;;17.07;62.45;99212.41;2037257;28;19968;-47
2023/01/11 02:30:33;;;;;;;;;;;;;;;17.05;62.61;99209.06;2036698;28;19930;-51
2023/01/11 02:31:38;;;;;;;;;;;;;;;17.04;62.70;99210.94;2035858;28;19953;-49
2023/01/11 02:32:46;;;;;;;;;;;;;;;17.04;62.71;99210.09;2036761;28;19933;-53
2023/01/11 02:33:54;;;;;;;;;;;;;;;17.02;62.53;99207.63;2035505;28;21329;-49
2023/01/11 02:34:59;;;;;;;;;;;;;;;17.03;62.62;99205.75;2041172;28;19967;-49
2023/01/11 02:36:07;;;;;;;;;;;;;;;17.01;62.53;99203.25;2032255;28;19927;-48
2023/01/11 02:37:11;;;;;;;;;;;;;;;16.98;62.68;99198.25;2064703;28;19928;-51
2023/01/11 02:38:15;;;;;;;;;;;;;;;16.97;62.77;99196.59;2034490;28;19932;-49
2023/01/11 02:39:21;;;;;;;;;;;;;;;16.96;62.83;99200.28;2035316;28;19941;-51
2023/01/11 02:40:25;;;;;;;;;;;;;;;16.96;62.67;99211.00;2039314;28;20488;-49
2023/01/11 02:45:00;;;;;;;;;;;;;;;16.98;62.57;99192.91;2039707;28;19987;-53
2023/01/11 02:45:42;;;;;;;;;;;;;;;16.95;62.68;99187.91;2037598;28;19926;-50
2023/01/11 02:46:45;;;;;;;;;;;;;;;16.96;62.50;99189.56;2032045;28;19926;-48
2023/01/11 02:47:49;;;;;;;;;;;;;;;16.95;62.74;99190.56;2036610;28;19932;-52
2023/01/11 02:48:53;;;;;;;;;;;;;;;16.93;62.83;99193.41;2039132;28;19929;-49
2023/01/11 02:49:59;;;;;;;;;;;;;;;16.93;62.81;99189.91;2036342;28;19941;-49
2023/01/11 02:51:03;;;;;;;;;;;;;;;16.92;62.68;99188.25;2039374;28;19930;-49
2023/01/11 02:52:08;;;;;;;;;;;;;;;16.92;62.63;99190.94;2038599;28;20012;-51
2023/01/11 02:53:11;;;;;;;;;;;;;;;16.92;62.62;99188.25;2038511;28;19922;-49
2023/01/11 02:54:15;;;;;;;;;;;;;;;16.90;62.69;99201.00;2037246;28;20314;-49
2023/01/11 02:55:19;;;;;;;;;;;;;;;16.89;62.74;99194.81;2037152;28;20033;-52
2023/01/11 02:56:22;;;;;;;;;;;;;;;16.87;62.65;99180.75;2035878;28;19927;-51
2023/01/11 02:57:23;;;;;;;;;;;;;;;16.86;62.84;99189.81;2036752;28;19926;-49
2023/01/11 02:58:28;;;;;;;;;;;;;;;16.88;62.78;99186.94;2033882;28;19952;-49
2023/01/11 02:59:30;;;;;;;;;;;;;;;16.85;62.82;99193.47;2037963;28;19930;-53
2023/01/11 03:00:32;;;;;;;;;;;;;;;16.84;62.94;99191.00;2037529;28;19926;-53
2023/01/11 03:01:32;;;;;;;;;;;;;;;16.84;62.77;99180.28;2035112;28;19941;-52
2023/01/11 03:02:33;;;;;;;;;;;;;;;16.83;62.84;99178.63;2034374;28;20725;-51
2023/01/11 03:03:34;;;;;;;;;;;;;;;16.81;62.84;99178.78;2040770;28;20386;-50
2023/01/11 03:04:38;;;;;;;;;;;;;;;16.81;62.77;99183.31;2040280;28;19925;-49
2023/01/11 03:05:42;;;;;;;;;;;;;;;16.81;62.92;99186.81;2038836;28;19931;-51
2023/01/11 03:06:44;;;;;;;;;;;;;;;16.79;62.85;99191.53;2034370;28;19930;-53
2023/01/11 03:07:51;;;;;;;;;;;;;;;16.80;62.86;99189.66;2038699;28;20541;-53
2023/01/11 03:09:07;;;;;;;;;;;;;;;16.80;62.86;99189.66;2040018;28;19931;-49
2023/01/11 03:10:16;;;;;;;;;;;;;;;16.80;62.71;99187.84;2068747;28;20935;-52
2023/01/11 03:12:50;;;;;;;;;;;;;;;16.80;62.68;99187.00;2036684;28;20445;-50
2023/01/11 03:12:53;;;;;;;;;;;;;;;16.79;62.72;99193.38;2039353;28;19926;-51
2023/01/11 03:13:58;;;;;;;;;;;;;;;16.76;62.89;99194.53;2038791;28;19926;-52
2023/01/11 03:15:04;;;;;;;;;;;;;;;16.75;62.79;99196.38;2041678;28;19923;-49
2023/01/11 03:16:12;;;;;;;;;;;;;;;16.76;62.84;99189.16;2072095;28;19928;-48
2023/01/11 03:17:20;;;;;;;;;;;;;;;16.75;62.76;99192.88;2067422;28;19978;-52
2023/01/11 03:18:33;;;;;;;;;;;;;;;16.73;62.97;99193.03;2041948;28;19923;-49
2023/01/11 03:19:38;;;;;;;;;;;;;;;16.73;62.87;99195.72;2041052;28;19931;-51
2023/01/11 03:20:40;;;;;;;;;;;;;;;16.74;62.86;99196.53;2036772;28;19922;-48
2023/01/11 03:21:54;;;;;;;;;;;;;;;16.71;62.94;99187.00;2040370;28;19930;-53
2023/01/11 03:23:01;;;;;;;;;;;;;;;16.72;62.90;99193.22;2037582;28;19926;-50
2023/01/11 03:24:05;;;;;;;;;;;;;;;16.71;62.87;99192.38;2039064;28;19926;-50
2023/01/11 03:25:12;;;;;;;;;;;;;;;16.69;62.93;99190.91;2039488;28;19921;-48
2023/01/11 03:26:18;;;;;;;;;;;;;;;16.69;62.84;99182.88;2037283;28;19954;-53
2023/01/11 03:27:24;;;;;;;;;;;;;;;16.68;62.84;99182.00;2036859;28;19934;-49
2023/01/11 03:28:32;;;;;;;;;;;;;;;16.68;62.92;99186.53;2037538;28;19926;-50
2023/01/11 03:29:35;;;;;;;;;;;;;;;16.68;62.94;99182.00;2039978;28;19957;-50
2023/01/11 03:30:42;;;;;;;;;;;;;;;16.69;62.98;99177.50;2036656;28;19922;-49
2023/01/11 03:31:48;;;;;;;;;;;;;;;16.67;63.01;99179.53;2039283;28;19926;-49
2023/01/11 03:32:52;;;;;;;;;;;;;;;16.68;62.88;99179.34;2037372;28;19970;-49
2023/01/11 03:33:56;;;;;;;;;;;;;;;16.67;62.87;99180.34;2036203;28;19926;-48
2023/01/11 03:35:02;;;;;;;;;;;;;;;16.65;62.85;99177.00;2040490;28;19995;-53
2023/01/11 03:36:07;;;;;;;;;;;;;;;16.63;63.01;99164.81;2036783;28;19933;-51
2023/01/11 03:37:11;;;;;;;;;;;;;;;16.62;63.05;99176.53;2035609;28;19931;-49
2023/01/11 03:38:15;;;;;;;;;;;;;;;16.63;62.93;99167.50;2067508;28;19929;-51
2023/01/11 03:39:21;;;;;;;;;;;;;;;16.62;63.04;99169.34;2041306;28;19948;-50
2023/01/11 03:40:24;;;;;;;;;;;;;;;16.61;62.83;99170.34;2042352;28;19925;-51
2023/01/11 03:41:27;;;;;;;;;;;;;;;16.61;62.99;99167.69;2038131;28;20286;-49
2023/01/11 03:42:28;;;;;;;;;;;;;;;16.61;63.00;99162.31;2041233;28;19930;-50
2023/01/11 03:43:31;;;;;;;;;;;;;;;16.60;63.00;99151.78;2038269;28;19961;-49
2023/01/11 03:44:34;;;;;;;;;;;;;;;16.61;63.00;99156.16;2038236;28;20055;-48
2023/01/11 03:45:37;;;;;;;;;;;;;;;16.58;62.98;99149.28;2037319;28;20004;-50
2023/01/11 03:46:43;;;;;;;;;;;;;;;16.59;63.06;99152.81;2039058;28;20132;-48
2023/01/11 03:47:45;;;;;;;;;;;;;;;16.57;63.00;99154.81;2040219;28;19945;-50
2023/01/11 03:48:48;;;;;;;;;;;;;;;16.58;62.96;99146.63;2038295;28;19975;-49
2023/01/11 03:49:52;;;;;;;;;;;;;;;16.58;62.92;99154.66;2035155;28;19941;-51
2023/01/11 03:50:54;;;;;;;;;;;;;;;16.57;62.75;99155.66;2033204;28;21265;-49
2023/01/11 03:51:57;;;;;;;;;;;;;;;16.53;62.90;99152.50;2039150;28;19927;-49
2023/01/11 03:52:59;;;;;;;;;;;;;;;16.55;63.06;99155.00;2037510;28;20553;-49
2023/01/11 03:54:03;;;;;;;;;;;;;;;16.58;62.79;99154.66;2037267;28;20789;-51
2023/01/11 03:55:05;;;;;;;;;;;;;;;16.57;62.96;99155.66;2035237;28;19930;-56
2023/01/11 03:56:09;;;;;;;;;;;;;;;16.54;62.96;99153.31;2034542;28;20358;-49
2023/01/11 03:57:12;;;;;;;;;;;;;;;16.52;62.95;99153.53;2038818;28;19930;-52
2023/01/11 03:58:14;;;;;;;;;;;;;;;16.52;62.85;99153.53;2039274;28;19930;-52
2023/01/11 03:59:14;;;;;;;;;;;;;;;16.53;62.94;99151.66;2038846;28;20017;-49
2023/01/11 04:00:16;;;;;;;;;;;;;;;16.52;62.89;99155.38;2043027;28;19930;-48
2023/01/11 04:01:17;;;;;;;;;;;;;;;16.54;62.91;99156.00;2039412;28;19980;-48
2023/01/11 04:02:21;;;;;;;;;;;;;;;16.52;63.01;99152.69;2039425;28;19930;-51
2023/01/11 04:03:21;;;;;;;;;;;;;;;16.52;62.97;99150.84;2036818;28;20053;-50
2023/01/11 04:04:23;;;;;;;;;;;;;;;16.52;62.92;99150.84;2034626;28;19926;-53
2023/01/11 04:05:23;;;;;;;;;;;;;;;16.51;63.05;99153.69;2038979;28;19937;-50
2023/01/11 04:06:25;;;;;;;;;;;;;;;16.48;62.94;99148.69;2037846;28;19934;-50
2023/01/11 04:07:25;;;;;;;;;;;;;;;16.49;63.02;99151.19;2035701;28;20529;-52
2023/01/11 04:08:27;;;;;;;;;;;;;;;16.47;63.09;99147.03;2037132;28;19930;-53
2023/01/11 04:09:27;;;;;;;;;;;;;;;16.49;63.00;99153.88;2033702;28;19975;-49
2023/01/11 04:10:29;;;;;;;;;;;;;;;16.49;63.02;99158.38;2040298;28;19976;-52
2023/01/11 04:11:29;;;;;;;;;;;;;;;16.44;62.98;99156.25;2037016;28;19930;-51
2023/01/11 04:12:30;;;;;;;;;;;;;;;16.44;63.08;99164.28;2040258;28;19933;-51
2023/01/11 04:13:32;;;;;;;;;;;;;;;16.44;63.04;99166.13;2038499;28;19926;-48
2023/01/11 04:14:34;;;;;;;;;;;;;;;16.45;63.02;99165.09;2040172;28;19974;-49
2023/01/11 04:15:34;;;;;;;;;;;;;;;16.44;63.08;99168.81;2038725;28;19987;-49
2023/01/11 04:16:36;;;;;;;;;;;;;;;16.44;63.11;99171.47;2035992;28;19934;-53
2023/01/11 04:17:37;;;;;;;;;;;;;;;16.42;63.06;99168.13;2038249;28;19968;-48
2023/01/11 04:18:40;;;;;;;;;;;;;;;16.42;63.01;99178.84;2037548;28;19971;-50
2023/01/11 04:19:40;;;;;;;;;;;;;;;16.43;63.09;99177.81;2040901;28;20214;-49
2023/01/11 04:20:41;;;;;;;;;;;;;;;16.41;63.04;99177.16;2035684;28;19937;-49
2023/01/11 04:21:42;;;;;;;;;;;;;;;16.40;62.95;99179.00;2038331;28;20033;-49
2023/01/11 04:22:43;;;;;;;;;;;;;;;16.41;63.12;99178.03;2035570;28;20818;-51
2023/01/11 04:23:44;;;;;;;;;;;;;;;16.41;62.97;99178.03;2039246;28;20557;-50
2023/01/11 04:24:45;;;;;;;;;;;;;;;16.41;63.09;99177.16;2043474;28;19926;-48
2023/01/11 04:25:46;;;;;;;;;;;;;;;16.41;63.02;99174.47;2039378;28;19923;-49
2023/01/11 04:26:47;;;;;;;;;;;;;;;16.40;63.12;99170.97;2040631;28;28032;-53
2023/01/11 04:27:47;;;;;;;;;;;;;;;16.40;63.04;99172.81;2038303;28;19931;-48
2023/01/11 04:28:49;;;;;;;;;;;;;;;16.40;62.99;99167.47;2040349;28;20381;-48
2023/01/11 04:29:49;;;;;;;;;;;;;;;16.38;63.07;99175.69;2041021;28;19935;-54
2023/01/11 04:30:51;;;;;;;;;;;;;;;16.37;63.18;99167.81;2062351;28;19969;-52
2023/01/11 04:31:51;;;;;;;;;;;;;;;16.36;63.02;99171.53;2049149;28;19930;-51
2023/01/11 04:32:56;;;;;;;;;;;;;;;16.38;63.07;99174.84;2036032;28;19927;-48
2023/01/11 04:33:57;;;;;;;;;;;;;;;16.37;62.93;99178.53;2038951;28;20025;-49
2023/01/11 04:34:58;;;;;;;;;;;;;;;16.34;63.14;99173.53;2037474;28;19930;-52
2023/01/11 04:36:02;;;;;;;;;;;;;;;16.35;63.05;99178.69;2036978;28;19975;-50
2023/01/11 04:37:04;;;;;;;;;;;;;;;16.38;62.99;99174.84;2038453;28;20378;-51
2023/01/11 04:38:04;;;;;;;;;;;;;;;16.41;62.86;99175.34;2035738;28;20557;-48
2023/01/11 04:39:09;;;;;;;;;;;;;;;16.46;62.78;99172.13;2038692;28;19933;-48
2023/01/11 04:40:10;;;;;;;;;;;;;;;16.56;62.50;99178.09;2036931;28;19969;-48
2023/01/11 04:42:30;;;;;;;;;;;;;;;16.72;62.08;99172.63;2038310;28;19930;-49
2023/01/11 04:43:31;;;;;;;;;;;;;;;16.77;62.13;99182.00;2038469;28;19968;-48
2023/01/11 04:44:31;;;;;;;;;;;;;;;16.83;61.91;99179.44;2036978;28;20877;-49
2023/01/11 04:45:33;;;;;;;;;;;;;;;16.91;61.94;99186.56;2040124;28;20167;-50
2023/01/11 04:46:33;;;;;;;;;;;;;;;16.93;61.83;99185.38;2038295;28;20439;-48
2023/01/11 04:47:35;;;;;;;;;;;;;;;16.97;61.78;99176.00;2043557;28;19926;-49
2023/01/11 04:48:38;;;;;;;;;;;;;;;17.05;61.70;99177.78;2039994;28;20479;-48
2023/01/11 04:49:39;;;;;;;;;;;;;;;17.07;61.66;99174.91;2038202;28;20004;-49
2023/01/11 04:50:39;;;;;;;;;;;;;;;17.08;61.67;99185.44;2040614;28;19983;-49
2023/01/11 04:51:41;;;;;;;;;;;;;;;17.11;61.65;99177.03;2036923;28;19926;-49
2023/01/11 04:52:41;;;;;;;;;;;;;;;17.15;61.69;99189.06;2040056;28;20004;-47
2023/01/11 04:53:43;;;;;;;;;;;;;;;17.19;61.58;99181.50;2034171;28;19952;-49
2023/01/11 04:54:44;;;;;;;;;;;;;;;17.20;61.63;99186.69;2035815;28;19991;-49
2023/01/11 04:55:45;;;;;;;;;;;;;;;17.25;61.52;99185.31;2041502;28;19979;-50
2023/01/11 04:56:45;;;;;;;;;;;;;;;17.28;61.55;99185.78;2038204;28;19967;-49
2023/01/11 04:57:47;;;;;;;;;;;;;;;17.35;61.48;99180.50;2039114;28;19968;-48
2023/01/11 04:58:47;;;;;;;;;;;;;;;17.37;61.43;99189.22;2040613;28;19988;-47
2023/01/11 04:59:49;;;;;;;;;;;;;;;17.39;61.18;99184.50;2040480;28;19929;-50
2023/01/11 05:00:49;;;;;;;;;;;;;;;17.42;61.22;99190.34;2044672;28;19934;-50
2023/01/11 05:01:51;;;;;;;;;;;;;;;17.45;61.21;99185.63;2038536;28;20778;-49
2023/01/11 05:02:51;;;;;;;;;;;;;;;17.45;61.24;99188.31;2039115;28;19930;-51
2023/01/11 05:03:54;;;;;;;;;;;;;;;17.43;61.46;99183.94;2040051;28;20425;-50
2023/01/11 05:04:55;;;;;;;;;;;;;;;17.47;61.28;99188.94;2040277;28;21045;-50
2023/01/11 05:05:56;;;;;;;;;;;;;;;17.48;61.47;99188.78;2040491;28;19996;-49
2023/01/11 05:06:57;;;;;;;;;;;;;;;17.52;61.16;99190.06;2040684;28;19927;-47
2023/01/11 05:07:58;;;;;;;;;;;;;;;17.56;61.13;99196.75;2037602;28;19945;-47
2023/01/11 05:08:59;;;;;;;;;;;;;;;17.59;61.00;99193.69;2040793;28;19929;-47
2023/01/11 05:10:00;;;;;;;;;;;;;;;17.63;61.00;99194.13;2036594;28;20373;-49
2023/01/11 05:11:02;;;;;;;;;;;;;;;17.63;61.15;99186.94;2037091;28;19984;-49
2023/01/11 05:12:04;;;;;;;;;;;;;;;17.63;60.93;99191.47;2039771;28;19984;-48
2023/01/11 05:13:04;;;;;;;;;;;;;;;17.67;60.97;99190.09;2025518;28;19988;-48
2023/01/11 05:14:06;;;;;;;;;;;;;;;17.70;60.90;99196.94;2036090;28;19952;-48
2023/01/11 05:15:07;;;;;;;;;;;;;;;17.68;61.15;99194.44;2035833;28;19976;-47
2023/01/11 05:16:09;;;;;;;;;;;;;;;17.73;61.04;99188.53;2039094;28;19927;-52
2023/01/11 05:17:11;;;;;;;;;;;;;;;17.73;60.98;99192.03;2036282;28;20360;-47
2023/01/11 05:18:13;;;;;;;;;;;;;;;17.74;61.16;99192.84;2037944;28;19946;-48
2023/01/11 05:19:15;;;;;;;;;;;;;;;17.77;60.91;99193.31;2036560;28;20032;-48
2023/01/11 05:20:16;;;;;;;;;;;;;;;17.80;60.94;99198.38;2035825;28;19926;-49
2023/01/11 05:21:18;;;;;;;;;;;;;;;17.84;61.09;99198.81;2038769;28;20386;-50
2023/01/11 05:22:19;;;;;;;;;;;;;;;17.87;61.04;99193.09;2036542;28;19956;-48
2023/01/11 05:23:20;;;;;;;;;;;;;;;17.87;61.02;99198.47;2036507;28;19987;-49
2023/01/11 05:24:22;;;;;;;;;;;;;;;17.93;60.94;99191.50;2038350;28;19922;-49
2023/01/11 05:25:22;;;;;;;;;;;;;;;17.95;60.90;99194.84;2040233;28;19930;-49
2023/01/11 05:26:26;;;;;;;;;;;;;;;17.98;60.66;99187.25;2033538;28;21959;-49
2023/01/11 05:27:26;;;;;;;;;;;;;;;17.97;61.00;99188.28;2036762;28;19930;-49
2023/01/11 05:28:27;;;;;;;;;;;;;;;17.99;60.92;99186.22;2037560;28;20045;-49
2023/01/11 05:29:29;;;;;;;;;;;;;;;18.03;60.78;99194.75;2041052;28;19980;-48
2023/01/11 05:30:29;;;;;;;;;;;;;;;18.09;60.68;99192.16;2038488;28;20047;-51
2023/01/11 05:31:31;;;;;;;;;;;;;;;18.07;60.67;99188.81;2036314;28;19954;-49
2023/01/11 05:32:32;;;;;;;;;;;;;;;18.09;60.71;99181.41;2037208;28;19922;-48
2023/01/11 05:33:33;;;;;;;;;;;;;;;18.12;60.55;99182.91;2033259;28;19926;-49
2023/01/11 05:34:35;;;;;;;;;;;;;;;18.15;60.38;99195.94;2037654;28;20443;-51
2023/01/11 05:35:36;;;;;;;;;;;;;;;18.19;60.54;99191.88;2039096;28;19947;-48
2023/01/11 05:36:37;;;;;;;;;;;;;;;18.19;60.38;99191.00;2056410;28;19928;-49
2023/01/11 05:37:38;;;;;;;;;;;;;;;18.19;60.46;99202.63;2049647;28;19926;-49
2023/01/11 05:38:39;;;;;;;;;;;;;;;18.20;60.58;99192.69;2036411;28;20488;-48
2023/01/11 05:39:40;;;;;;;;;;;;;;;18.20;60.55;99188.16;2039043;28;20004;-50
2023/01/11 05:40:41;;;;;;;;;;;;;;;18.23;60.42;99189.63;2038800;28;19968;-48